createdAt,value
2018-12-24T00:00:36.636Z,84.29
2018-12-24T00:03:06.698Z,84.02
2018-12-24T00:05:36.403Z,83.65
2018-12-24T00:10:45.449Z,83.11
2018-12-24T00:13:24.444Z,82.87
2018-12-24T00:15:54.383Z,82.73
2018-12-24T00:18:25.373Z,82.39
2018-12-24T00:20:55.126Z,82.44
2018-12-24T00:23:24.871Z,81.54
2018-12-24T00:25:54.869Z,81.61
2018-12-24T00:28:24.630Z,81.30
2018-12-24T00:30:57.626Z,80.67
2018-12-24T00:33:27.655Z,80.26
2018-12-24T00:35:57.395Z,80.23
2018-12-24T00:38:27.147Z,80.20
2018-12-24T00:40:57.176Z,80.25
2018-12-24T00:43:26.896Z,80.29
2018-12-24T00:45:59.483Z,80.69
2018-12-24T00:48:29.503Z,76.29
2018-12-24T00:50:59.262Z,75.84
2018-12-24T00:53:29.008Z,78.67
2018-12-24T00:56:02.725Z,80.23
2018-12-24T00:58:32.478Z,82.91
2018-12-24T01:01:10.003Z,84.08
2018-12-24T01:03:51.166Z,83.96
2018-12-24T01:06:35.130Z,84.29
2018-12-24T01:09:10.950Z,83.88
2018-12-24T01:11:49.433Z,83.57
2018-12-24T01:14:27.601Z,84.75
2018-12-24T01:17:33.824Z,84.20
2018-12-24T01:20:12.927Z,83.63
2018-12-24T01:23:07.277Z,84.48
2018-12-24T01:25:54.716Z,82.83
2018-12-24T01:28:37.904Z,82.63
2018-12-24T01:31:11.973Z,83.07
2018-12-24T01:36:48.730Z,82.95
2018-12-24T01:39:51.600Z,82.75
2018-12-24T01:42:49.474Z,82.99
2018-12-24T01:45:37.031Z,82.71
2018-12-24T01:48:40.213Z,81.63
2018-12-24T01:51:46.396Z,81.56
2018-12-24T01:54:36.656Z,79.30
2018-12-24T01:57:27.612Z,80.41
2018-12-24T02:00:15.616Z,78.45
2018-12-24T02:03:12.139Z,79.45
2018-12-24T02:06:11.800Z,79.19
2018-12-24T02:09:01.627Z,79.36
2018-12-24T02:12:11.674Z,79.14
2018-12-24T02:15:04.658Z,78.70
2018-12-24T02:18:00.441Z,79.08
2018-12-24T02:20:38.474Z,80.12
2018-12-24T02:23:22.662Z,80.38
2018-12-24T02:26:29.775Z,79.92
2018-12-24T02:29:21.344Z,79.89
2018-12-24T02:32:35.989Z,80.27
2018-12-24T02:35:29.576Z,79.70
2018-12-24T02:38:17.066Z,81.07
2018-12-24T02:40:46.807Z,81.93
2018-12-24T02:43:16.798Z,81.71
2018-12-24T02:45:46.599Z,81.02
2018-12-24T02:48:19.233Z,81.11
2018-12-24T02:50:49.254Z,80.48
2018-12-24T02:53:27.813Z,79.41
2018-12-24T02:55:57.838Z,79.29
2018-12-24T02:58:27.550Z,77.22
2018-12-24T03:00:57.295Z,77.51
2018-12-24T03:03:27.284Z,77.08
2018-12-24T03:05:58.908Z,75.66
2018-12-24T03:08:28.680Z,75.19
2018-12-24T03:10:58.707Z,75.80
2018-12-24T03:13:28.417Z,74.81
2018-12-24T03:16:01.516Z,75.25
2018-12-24T03:18:33.131Z,75.71
2018-12-24T03:21:02.890Z,76.27
2018-12-24T03:23:32.751Z,75.96
2018-12-24T03:26:05.294Z,74.85
2018-12-24T03:28:35.323Z,75.58
2018-12-24T03:31:05.103Z,76.20
2018-12-24T03:33:34.827Z,76.24
2018-12-24T03:36:05.745Z,75.68
2018-12-24T03:38:35.486Z,76.15
2018-12-24T03:41:05.200Z,76.40
2018-12-24T03:43:35.201Z,76.41
2018-12-24T03:46:11.756Z,76.80
2018-12-24T03:48:47.382Z,76.10
2018-12-24T03:51:17.436Z,77.05
2018-12-24T03:53:47.179Z,76.99
2018-12-24T03:56:17.222Z,76.14
2018-12-24T03:58:46.992Z,76.28
2018-12-24T04:01:16.764Z,76.51
2018-12-24T04:03:51.284Z,76.31
2018-12-24T04:06:18.329Z,76.08
2018-12-24T04:08:51.006Z,76.54
2018-12-24T04:11:21.048Z,77.08
2018-12-24T04:13:50.832Z,76.49
2018-12-24T04:16:20.561Z,77.14
2018-12-24T04:18:50.671Z,76.94
2018-12-24T04:21:22.747Z,76.84
2018-12-24T04:23:57.969Z,74.90
2018-12-24T04:26:28.035Z,74.31
2018-12-24T04:28:57.809Z,74.26
2018-12-24T04:31:29.788Z,74.38
2018-12-24T04:33:59.822Z,75.44
2018-12-24T04:36:35.638Z,75.21
2018-12-24T04:39:14.188Z,75.17
2018-12-24T04:41:43.947Z,75.73
2018-12-24T04:44:18.106Z,75.95
2018-12-24T04:46:48.167Z,76.54
2018-12-24T04:49:17.951Z,76.59
2018-12-24T04:51:47.672Z,75.22
2018-12-24T04:54:26.684Z,75.51
2018-12-24T04:56:56.402Z,75.38
2018-12-24T04:59:26.186Z,75.29
2018-12-24T05:01:56.560Z,75.46
2018-12-24T05:04:26.373Z,75.18
2018-12-24T05:07:03.438Z,74.43
2018-12-24T05:09:35.434Z,74.83
2018-12-24T05:12:08.087Z,74.68
2018-12-24T05:14:38.261Z,74.71
2018-12-24T05:17:11.031Z,74.69
2018-12-24T05:19:44.835Z,74.37
2018-12-24T05:22:13.583Z,74.31
2018-12-24T05:24:43.353Z,74.33
2018-12-24T05:27:19.456Z,75.11
2018-12-24T05:33:03.475Z,75.73
2018-12-24T05:35:38.681Z,75.05
2018-12-24T05:38:08.098Z,75.43
2018-12-24T05:40:38.105Z,74.90
2018-12-24T05:43:07.366Z,74.55
2018-12-24T05:45:36.708Z,74.08
2018-12-24T05:48:06.341Z,74.37
2018-12-24T05:50:35.618Z,74.63
2018-12-24T05:53:05.045Z,74.85
2018-12-24T05:55:34.662Z,74.83
2018-12-24T05:58:04.605Z,75.43
2018-12-24T06:00:39.736Z,74.28
2018-12-24T06:03:09.318Z,74.19
2018-12-24T06:05:38.593Z,74.00
2018-12-24T06:08:07.962Z,73.70
2018-12-24T06:10:37.543Z,73.84
2018-12-24T06:13:06.846Z,73.35
2018-12-24T06:15:36.174Z,73.37
2018-12-24T06:18:08.822Z,72.88
2018-12-24T06:20:38.116Z,72.74
2018-12-24T06:23:13.385Z,72.37
2018-12-24T06:25:42.983Z,73.07
2018-12-24T06:28:12.417Z,72.66
2018-12-24T06:30:41.812Z,73.07
2018-12-24T06:33:14.250Z,72.70
2018-12-24T06:35:43.550Z,71.59
2018-12-24T06:38:13.015Z,72.50
2018-12-24T06:40:42.605Z,71.72
2018-12-24T06:43:11.902Z,71.89
2018-12-24T06:45:42.995Z,71.00
2018-12-24T06:48:12.600Z,71.42
2018-12-24T06:50:41.879Z,71.17
2018-12-24T06:53:13.120Z,71.33
2018-12-24T06:55:43.719Z,71.33
2018-12-24T06:58:12.990Z,71.51
2018-12-24T07:00:42.328Z,71.76
2018-12-24T07:03:16.055Z,71.19
2018-12-24T07:05:45.459Z,71.51
2018-12-24T07:08:14.909Z,72.15
2018-12-24T07:10:44.523Z,71.24
2018-12-24T07:13:13.890Z,71.20
2018-12-24T07:15:43.255Z,71.27
2018-12-24T07:18:18.728Z,71.40
2018-12-24T07:20:48.078Z,71.35
2018-12-24T07:23:20.154Z,71.81
2018-12-24T07:25:49.743Z,72.23
2018-12-24T07:28:19.104Z,72.43
2018-12-24T07:30:57.546Z,72.11
2018-12-24T07:33:27.228Z,72.23
2018-12-24T07:35:56.511Z,71.67
2018-12-24T07:38:25.793Z,71.16
2018-12-24T07:40:55.585Z,70.93
2018-12-24T07:43:24.888Z,70.96
2018-12-24T07:45:54.167Z,70.20
2018-12-24T07:48:26.760Z,70.17
2018-12-24T07:50:56.022Z,70.42
2018-12-24T07:53:25.340Z,70.61
2018-12-24T07:55:55.008Z,70.85
2018-12-24T07:58:24.307Z,70.69
2018-12-24T08:00:53.737Z,70.61
2018-12-24T08:03:23.382Z,70.43
2018-12-24T08:05:52.709Z,70.75
2018-12-24T08:08:22.021Z,70.85
2018-12-24T08:10:52.701Z,70.68
2018-12-24T08:13:21.978Z,71.15
2018-12-24T08:15:51.312Z,71.57
2018-12-24T08:18:20.953Z,71.17
2018-12-24T08:20:52.136Z,71.20
2018-12-24T08:23:21.421Z,71.25
2018-12-24T08:25:51.044Z,71.16
2018-12-24T08:28:20.367Z,71.63
2018-12-24T08:30:49.696Z,71.08
2018-12-24T08:33:19.153Z,71.20
2018-12-24T08:35:48.441Z,71.01
2018-12-24T08:38:18.050Z,71.32
2018-12-24T08:40:47.411Z,70.01
2018-12-24T08:43:16.689Z,68.87
2018-12-24T08:45:47.515Z,69.41
2018-12-24T08:48:16.825Z,69.79
2018-12-24T08:50:46.385Z,69.22
2018-12-24T08:53:15.673Z,69.67
2018-12-24T08:55:51.984Z,68.75
2018-12-24T08:58:24.619Z,68.66
2018-12-24T09:00:53.895Z,68.35
2018-12-24T09:03:23.225Z,68.28
2018-12-24T09:05:52.582Z,66.47
2018-12-24T09:08:22.089Z,66.97
2018-12-24T09:10:54.327Z,67.24
2018-12-24T09:13:26.417Z,67.12
2018-12-24T09:15:55.694Z,66.37
2018-12-24T09:18:25.118Z,66.13
2018-12-24T09:21:03.797Z,66.43
2018-12-24T09:23:33.141Z,65.59
2018-12-24T09:26:05.403Z,65.93
2018-12-24T09:28:34.680Z,65.73
2018-12-24T09:31:04.169Z,66.07
2018-12-24T09:33:33.452Z,65.90
2018-12-24T09:36:06.113Z,65.69
2018-12-24T09:38:35.771Z,65.46
2018-12-24T09:41:05.066Z,65.40
2018-12-24T09:43:34.380Z,65.48
2018-12-24T09:46:04.429Z,65.76
2018-12-24T09:48:33.725Z,65.43
2018-12-24T09:51:03.383Z,64.41
2018-12-24T09:53:32.708Z,64.66
2018-12-24T09:56:12.459Z,64.62
2018-12-24T09:58:34.026Z,64.10
2018-12-24T10:01:05.725Z,63.89
2018-12-24T10:03:41.899Z,64.43
2018-12-24T10:06:27.533Z,64.54
2018-12-24T10:09:01.712Z,63.78
2018-12-24T10:11:31.326Z,62.33
2018-12-24T10:14:00.664Z,62.36
2018-12-24T10:16:37.499Z,62.93
2018-12-24T10:19:06.832Z,62.41
2018-12-24T10:21:36.173Z,61.63
2018-12-24T10:24:08.861Z,62.30
2018-12-24T10:26:38.190Z,62.30
2018-12-24T10:29:14.035Z,62.14
2018-12-24T10:31:43.419Z,62.18
2018-12-24T10:34:16.048Z,62.43
2018-12-24T10:36:45.740Z,62.84
2018-12-24T10:39:15.148Z,63.17
2018-12-24T10:41:44.815Z,62.95
2018-12-24T10:44:17.418Z,63.00
2018-12-24T10:46:48.356Z,62.54
2018-12-24T10:49:17.705Z,63.26
2018-12-24T10:51:50.508Z,63.37
2018-12-24T10:54:19.878Z,64.34
2018-12-24T10:56:49.213Z,64.45
2018-12-24T10:59:18.922Z,64.65
2018-12-24T11:01:48.236Z,65.10
2018-12-24T11:04:17.617Z,65.19
2018-12-24T11:06:47.299Z,64.83
2018-12-24T11:09:16.621Z,64.55
2018-12-24T11:11:45.978Z,64.32
2018-12-24T11:14:15.651Z,64.77
2018-12-24T11:16:48.121Z,64.02
2018-12-24T11:19:17.495Z,64.39
2018-12-24T11:21:47.111Z,64.55
2018-12-24T11:24:16.405Z,65.12
2018-12-24T11:26:45.713Z,65.35
2018-12-24T11:29:21.261Z,65.84
2018-12-24T11:31:50.592Z,65.82
2018-12-24T11:34:19.886Z,65.64
2018-12-24T11:36:53.327Z,65.43
2018-12-24T11:39:22.771Z,65.54
2018-12-24T11:41:57.911Z,65.41
2018-12-24T11:44:27.570Z,65.56
2018-12-24T11:46:56.935Z,65.81
2018-12-24T11:49:26.288Z,65.18
2018-12-24T11:51:55.936Z,65.23
2018-12-24T11:54:25.341Z,65.71
2018-12-24T11:56:55.888Z,64.90
2018-12-24T11:59:26.924Z,64.24
2018-12-24T12:01:56.272Z,64.64
2018-12-24T12:04:27.296Z,64.25
2018-12-24T12:06:59.209Z,64.31
2018-12-24T12:09:28.517Z,64.13
2018-12-24T12:11:57.900Z,64.06
2018-12-24T12:14:27.480Z,64.58
2018-12-24T12:16:59.992Z,64.07
2018-12-24T12:19:29.488Z,64.67
2018-12-24T12:21:59.309Z,64.21
2018-12-24T12:24:28.807Z,63.61
2018-12-24T12:26:58.186Z,63.31
2018-12-24T12:29:27.841Z,62.75
2018-12-24T12:32:04.032Z,62.96
2018-12-24T12:34:33.338Z,62.90
2018-12-24T12:37:02.949Z,63.05
2018-12-24T12:39:32.424Z,63.55
2018-12-24T12:42:04.709Z,63.02
2018-12-24T12:44:37.426Z,63.98
2018-12-24T12:47:06.741Z,64.62
2018-12-24T12:49:39.059Z,64.66
2018-12-24T12:52:08.753Z,64.63
2018-12-24T12:54:38.056Z,64.23
2018-12-24T12:57:07.391Z,63.78
2018-12-24T12:59:37.034Z,62.92
2018-12-24T13:02:06.691Z,61.08
2018-12-24T13:04:36.401Z,61.42
2018-12-24T13:07:13.231Z,61.79
2018-12-24T13:09:42.532Z,62.44
2018-12-24T13:12:12.088Z,62.69
2018-12-24T13:14:41.438Z,62.95
2018-12-24T13:17:10.779Z,62.02
2018-12-24T13:19:40.431Z,62.35
2018-12-24T13:22:09.804Z,60.75
2018-12-24T13:24:40.392Z,60.39
2018-12-24T13:27:10.023Z,59.65
2018-12-24T13:29:46.506Z,59.63
2018-12-24T13:32:15.831Z,59.34
2018-12-24T13:34:55.112Z,60.66
2018-12-24T13:37:24.431Z,61.21
2018-12-24T13:39:54.030Z,60.95
2018-12-24T13:42:23.404Z,60.95
2018-12-24T13:44:52.965Z,61.08
2018-12-24T13:47:22.557Z,61.52
2018-12-24T13:49:54.435Z,61.28
2018-12-24T13:52:23.765Z,61.09
2018-12-24T13:54:53.516Z,61.28
2018-12-24T13:57:22.860Z,61.90
2018-12-24T13:59:52.197Z,61.67
2018-12-24T14:02:23.163Z,61.65
2018-12-24T14:04:52.794Z,61.74
2018-12-24T14:07:22.193Z,61.79
2018-12-24T14:09:51.821Z,61.63
2018-12-24T14:12:21.405Z,61.18
2018-12-24T14:14:52.310Z,61.68
2018-12-24T14:17:22.152Z,61.05
2018-12-24T14:19:51.823Z,61.01
2018-12-24T14:22:21.137Z,61.35
2018-12-24T14:24:50.888Z,60.93
2018-12-24T14:27:20.753Z,61.48
2018-12-24T14:29:53.063Z,61.92
2018-12-24T14:32:22.696Z,63.15
2018-12-24T14:34:52.424Z,63.42
2018-12-24T14:37:21.762Z,63.44
2018-12-24T14:39:51.900Z,62.90
2018-12-24T14:42:24.751Z,62.99
2018-12-24T14:44:54.396Z,62.83
2018-12-24T14:47:28.548Z,62.98
2018-12-24T14:49:57.906Z,63.03
2018-12-24T14:52:27.220Z,62.38
2018-12-24T14:54:57.086Z,62.96
2018-12-24T14:57:28.638Z,62.59
2018-12-24T14:59:57.968Z,62.36
2018-12-24T15:02:27.581Z,62.50
2018-12-24T15:05:05.683Z,62.26
2018-12-24T15:07:35.313Z,61.90
2018-12-24T15:10:10.994Z,61.79
2018-12-24T15:12:40.498Z,61.90
2018-12-24T15:15:09.807Z,61.75
2018-12-24T15:17:39.166Z,61.70
2018-12-24T15:20:08.805Z,60.90
2018-12-24T15:22:38.153Z,60.69
2018-12-24T15:25:13.704Z,60.20
2018-12-24T15:27:43.563Z,59.93
2018-12-24T15:30:13.068Z,58.84
2018-12-24T15:32:49.978Z,58.31
2018-12-24T15:35:20.812Z,58.45
2018-12-24T15:37:50.289Z,58.17
2018-12-24T15:40:19.676Z,57.08
2018-12-24T15:42:49.300Z,56.29
2018-12-24T15:45:18.722Z,56.14
2018-12-24T15:47:50.840Z,53.95
2018-12-24T15:50:20.754Z,54.18
2018-12-24T15:52:52.872Z,53.24
2018-12-24T15:55:22.210Z,53.25
2018-12-24T15:57:51.860Z,52.70
2018-12-24T16:00:21.194Z,53.08
2018-12-24T16:02:50.647Z,52.92
2018-12-24T16:05:30.640Z,52.98
2018-12-24T16:07:51.333Z,53.10
2018-12-24T16:10:23.449Z,52.89
2018-12-24T16:12:53.334Z,53.25
2018-12-24T16:15:22.666Z,53.56
2018-12-24T16:17:52.066Z,53.56
2018-12-24T16:20:24.779Z,53.59
2018-12-24T16:22:54.084Z,53.76
2018-12-24T16:27:58.059Z,54.62
2018-12-24T16:30:27.367Z,54.39
2018-12-24T16:32:56.724Z,54.43
2018-12-24T16:35:31.351Z,54.97
2018-12-24T16:38:00.689Z,54.77
2018-12-24T16:40:29.958Z,55.22
2018-12-24T16:42:59.593Z,55.34
2018-12-24T16:45:28.913Z,55.41
2018-12-24T16:48:00.995Z,55.68
2018-12-24T16:50:30.632Z,56.37
2018-12-24T16:53:00.042Z,56.19
2018-12-24T16:55:29.340Z,56.24
2018-12-24T16:58:00.159Z,56.18
2018-12-24T17:00:32.389Z,56.86
2018-12-24T17:03:01.682Z,56.74
2018-12-24T17:05:31.342Z,56.92
2018-12-24T17:08:00.701Z,57.43
2018-12-24T17:10:44.020Z,57.19
2018-12-24T17:13:14.626Z,57.23
2018-12-24T17:15:43.919Z,57.32
2018-12-24T17:18:16.072Z,57.45
2018-12-24T17:20:45.738Z,57.46
2018-12-24T17:23:24.141Z,57.80
2018-12-24T17:25:54.562Z,57.83
2018-12-24T17:28:24.472Z,58.12
2018-12-24T17:30:58.611Z,58.35
2018-12-24T17:33:25.387Z,58.49
2018-12-24T17:35:58.240Z,58.92
2018-12-24T17:38:29.633Z,59.25
2018-12-24T17:40:58.612Z,59.32
2018-12-24T17:43:28.201Z,59.32
2018-12-24T17:45:57.812Z,59.56
2018-12-24T17:48:27.159Z,59.87
2018-12-24T17:50:59.554Z,60.07
2018-12-24T17:53:28.866Z,60.28
2018-12-24T17:55:58.377Z,60.20
2018-12-24T17:58:28.232Z,60.35
2018-12-24T18:01:00.298Z,60.45
2018-12-24T18:03:29.732Z,60.22
2018-12-24T18:05:59.055Z,60.36
2018-12-24T18:08:31.194Z,60.54
2018-12-24T18:11:00.868Z,60.79
2018-12-24T18:13:30.834Z,60.94
2018-12-24T18:16:04.209Z,60.97
2018-12-24T18:18:34.015Z,60.79
2018-12-24T18:21:03.372Z,60.66
2018-12-24T18:23:35.886Z,60.76
2018-12-24T18:26:08.439Z,61.30
2018-12-24T18:28:37.755Z,61.36
2018-12-24T18:31:07.049Z,61.57
2018-12-24T18:33:42.059Z,61.60
2018-12-24T18:36:11.458Z,61.74
2018-12-24T18:38:40.899Z,62.17
2018-12-24T18:41:10.508Z,62.46
2018-12-24T18:43:42.722Z,62.50
2018-12-24T18:46:12.280Z,62.54
2018-12-24T18:48:41.685Z,62.78
2018-12-24T18:51:11.216Z,62.75
2018-12-24T18:53:41.351Z,62.92
2018-12-24T18:56:10.693Z,62.70
2018-12-24T18:58:42.461Z,62.81
2018-12-24T19:01:12.527Z,62.73
2018-12-24T19:03:41.888Z,62.98
2018-12-24T19:06:11.208Z,63.17
2018-12-24T19:08:40.994Z,63.71
2018-12-24T19:11:11.384Z,63.69
2018-12-24T19:13:41.527Z,63.35
2018-12-24T19:16:11.547Z,64.11
2018-12-24T19:18:40.918Z,64.25
2018-12-24T19:21:10.387Z,64.01
2018-12-24T19:23:46.037Z,63.90
2018-12-24T19:26:15.475Z,63.62
2018-12-24T19:28:45.215Z,63.50
2018-12-24T19:31:15.052Z,64.08
2018-12-24T19:33:44.475Z,64.24
2018-12-24T19:36:13.828Z,64.58
2018-12-24T19:38:43.591Z,64.26
2018-12-24T19:41:13.004Z,64.20
2018-12-24T19:43:42.548Z,65.25
2018-12-24T19:46:12.620Z,65.26
2018-12-24T19:48:42.046Z,64.93
2018-12-24T19:51:11.430Z,64.85
2018-12-24T19:53:41.241Z,64.85
2018-12-24T19:56:10.648Z,65.10
2018-12-24T19:58:42.904Z,65.10
2018-12-24T20:01:12.955Z,65.04
2018-12-24T20:03:42.586Z,65.21
2018-12-24T20:06:11.885Z,65.38
2018-12-24T20:08:41.577Z,65.63
2018-12-24T20:11:10.877Z,65.82
2018-12-24T20:13:40.226Z,65.59
2018-12-24T20:16:10.252Z,65.55
2018-12-24T20:18:39.973Z,65.92
2018-12-24T20:21:09.306Z,65.67
2018-12-24T20:23:40.820Z,66.22
2018-12-24T20:26:10.088Z,65.88
2018-12-24T20:28:39.477Z,66.22
2018-12-24T20:31:09.256Z,65.92
2018-12-24T20:33:38.701Z,66.17
2018-12-24T20:36:08.068Z,66.25
2018-12-24T20:38:37.838Z,66.27
2018-12-24T20:41:07.266Z,66.33
2018-12-24T20:43:36.799Z,66.38
2018-12-24T20:46:09.713Z,66.53
2018-12-24T20:48:39.042Z,66.88
2018-12-24T20:51:15.941Z,66.59
2018-12-24T20:53:39.837Z,66.69
2018-12-24T20:56:09.170Z,66.87
2018-12-24T20:58:38.457Z,67.16
2018-12-24T21:01:08.168Z,67.26
2018-12-24T21:03:37.673Z,67.08
2018-12-24T21:06:07.043Z,67.23
2018-12-24T21:08:36.799Z,67.28
2018-12-24T21:11:06.323Z,66.73
2018-12-24T21:13:35.650Z,67.47
2018-12-24T21:16:08.062Z,67.14
2018-12-24T21:18:37.425Z,67.63
2018-12-24T21:21:10.030Z,67.62
2018-12-24T21:23:44.654Z,67.59
2018-12-24T21:26:15.132Z,67.66
2018-12-24T21:28:44.511Z,67.46
2018-12-24T21:31:13.912Z,67.70
2018-12-24T21:33:43.621Z,67.86
2018-12-24T21:36:12.921Z,67.94
2018-12-24T21:38:42.245Z,67.89
2018-12-24T21:41:11.583Z,68.03
2018-12-24T21:43:40.892Z,67.94
2018-12-24T21:46:16.738Z,68.04
2018-12-24T21:48:48.454Z,68.29
2018-12-24T21:51:17.906Z,68.66
2018-12-24T21:53:47.575Z,69.08
2018-12-24T21:56:16.884Z,68.86
2018-12-24T21:58:49.021Z,68.72
2018-12-24T22:01:20.455Z,68.82
2018-12-24T22:03:52.788Z,68.66
2018-12-24T22:06:22.229Z,69.27
2018-12-24T22:08:51.733Z,69.48
2018-12-24T22:11:21.240Z,69.69
2018-12-24T22:13:50.967Z,69.84
2018-12-24T22:16:20.286Z,69.89
2018-12-24T22:18:51.712Z,70.12
2018-12-24T22:21:27.524Z,69.97
2018-12-24T22:23:56.839Z,69.90
2018-12-24T22:26:26.158Z,70.31
2018-12-24T22:28:55.847Z,70.52
2018-12-24T22:31:25.168Z,70.58
2018-12-24T22:33:55.783Z,70.29
2018-12-24T22:36:28.373Z,70.43
2018-12-24T22:39:00.008Z,70.82
2018-12-24T22:41:31.880Z,70.85
2018-12-24T22:44:07.676Z,70.64
2018-12-24T22:46:39.670Z,71.03
2018-12-24T22:49:09.250Z,70.94
2018-12-24T22:51:38.903Z,71.32
2018-12-24T22:54:08.239Z,71.42
2018-12-24T22:56:37.537Z,71.57
2018-12-24T22:59:09.937Z,71.65
2018-12-24T23:01:39.417Z,71.95
2018-12-24T23:06:44.362Z,72.04
2018-12-24T23:09:13.852Z,72.24
2018-12-24T23:11:53.042Z,72.13
2018-12-24T23:14:22.374Z,72.22
2018-12-24T23:16:59.207Z,72.36
2018-12-24T23:19:34.536Z,72.43
2018-12-24T23:22:08.809Z,72.54
2018-12-24T23:24:39.573Z,72.31
2018-12-24T23:27:14.694Z,72.41
2018-12-24T23:29:44.065Z,72.69
2018-12-24T23:32:13.764Z,72.36
2018-12-24T23:34:43.042Z,72.69
2018-12-24T23:37:12.363Z,72.33
2018-12-24T23:39:41.907Z,72.21
2018-12-24T23:42:11.154Z,72.24
2018-12-24T23:44:40.419Z,71.94
2018-12-24T23:47:10.082Z,72.34
2018-12-24T23:49:39.377Z,72.28
2018-12-24T23:52:14.726Z,71.96
2018-12-24T23:54:44.546Z,72.04
2018-12-24T23:57:17.149Z,71.91
2018-12-24T23:59:46.536Z,72.08
